Terminal Aerodrome Forecast
Issued by NWS Twin Cities, MN

Home | Current Version | Previous Version | Graphics & Text | Print | Product List | Glossary On
Versions: 1 2 3 4 5 6 7 8 9 10 11 12 13 14 15 16 17 18
000
FTUS43 KMPX 021120
TAFEAU
TAF
KEAU 021120Z 0212/0312 00000KT P6SM FEW200
      TEMPO 0212/0213 3SM BR
     FM021600 15003KT P6SM FEW050 SCT250
     FM030000 18004KT P6SM SCT250=

USA.gov is the U.S. government's official web portal to all federal, state and local government web resources and services.